Time;durP1;ratioP1;P1;durP2;ratioP2;P2;SDS_P1;SDS_P2;PMS_P1;PMS_P2;Temp;Humidity;BMP_temperature;BMP_pressure;BME280_temperature;BME280_humidity;BME280_pressure;Samples;Min_cycle;Max_cycle;Signal;HPM_P1;HPM_P2
2021/08/12 00:01:21;;;;;;;13.00;11.80;;;16.20;1.00;;;;;;5077205;28;20496;-76
2021/08/12 00:03:48;;;;;;;14.10;12.70;;;16.20;1.00;;;;;;5077194;28;20520;-76
2021/08/12 00:06:15;;;;;;;13.80;11.87;;;16.20;1.00;;;;;;5075248;28;20419;-77
2021/08/12 00:08:43;;;;;;;13.60;12.30;;;16.20;1.00;;;;;;5068776;28;20464;-77
2021/08/12 00:11:10;;;;;;;13.83;12.53;;;16.10;1.00;;;;;;5073319;28;20464;-77
2021/08/12 00:13:37;;;;;;;13.50;12.07;;;16.10;1.00;;;;;;5077699;28;20505;-78
2021/08/12 00:16:04;;;;;;;14.00;12.80;;;16.10;1.00;;;;;;5077092;28;20449;-77
2021/08/12 00:18:31;;;;;;;14.20;12.90;;;16.00;1.00;;;;;;5077585;28;20538;-75
2021/08/12 00:20:58;;;;;;;14.37;12.87;;;16.00;1.00;;;;;;5072068;28;20592;-78
2021/08/12 00:23:26;;;;;;;14.40;13.10;;;16.00;1.00;;;;;;5094001;28;20430;-76
2021/08/12 00:25:56;;;;;;;14.67;13.30;;;16.00;1.00;;;;;;5088718;28;20462;-76
2021/08/12 00:28:24;;;;;;;16.00;14.00;;;16.00;1.00;;;;;;5077588;28;20460;-77
2021/08/12 00:30:51;;;;;;;13.63;12.40;;;15.90;1.00;;;;;;5076835;28;21005;-76
2021/08/12 00:33:17;;;;;;;15.10;13.60;;;15.90;1.00;;;;;;5076086;28;20531;-77
2021/08/12 00:35:46;;;;;;;15.00;13.60;;;15.90;1.00;;;;;;5086586;28;20689;-77
2021/08/12 00:38:13;;;;;;;14.77;13.47;;;15.90;1.00;;;;;;5076591;28;20427;-78
2021/08/12 00:40:41;;;;;;;14.50;12.97;;;15.90;1.00;;;;;;5077126;28;20464;-77
2021/08/12 00:43:09;;;;;;;15.33;13.93;;;15.90;1.00;;;;;;5072470;28;20446;-77
2021/08/12 00:45:36;;;;;;;15.87;14.13;;;15.80;1.00;;;;;;5074419;28;20491;-77
2021/08/12 00:48:03;;;;;;;15.80;14.40;;;15.80;1.00;;;;;;5076426;28;20457;-77
2021/08/12 00:50:30;;;;;;;15.00;13.50;;;15.80;1.00;;;;;;5073815;28;20476;-77
2021/08/12 00:52:57;;;;;;;14.37;13.07;;;15.80;1.00;;;;;;5068084;28;20520;-76
2021/08/12 00:55:25;;;;;;;14.50;13.10;;;15.70;1.00;;;;;;5072452;28;20441;-79
2021/08/12 00:57:52;;;;;;;15.17;13.57;;;15.70;1.00;;;;;;5063236;28;20968;-76
2021/08/12 01:00:20;;;;;;;15.03;13.53;;;15.70;1.00;;;;;;5074654;28;20492;-77
2021/08/12 01:02:47;;;;;;;15.20;13.80;;;15.70;1.00;;;;;;5075762;28;20956;-78
2021/08/12 01:05:14;;;;;;;15.77;14.10;;;15.70;1.00;;;;;;5075898;28;21464;-77
2021/08/12 01:07:53;;;;;;;14.93;13.43;;;15.70;1.00;;;;;;5076538;28;20413;-81
2021/08/12 01:10:27;;;;;;;14.17;12.87;;;15.70;1.00;;;;;;5072437;28;20598;-77
2021/08/12 01:13:00;;;;;;;15.13;13.73;;;15.60;1.00;;;;;;5052587;28;20539;-76
2021/08/12 01:15:34;;;;;;;15.20;13.70;;;15.60;1.00;;;;;;5056612;28;20564;-76
2021/08/12 01:18:06;;;;;;;14.50;13.20;;;15.60;1.00;;;;;;5076365;28;20473;-76
2021/08/12 01:20:52;;;;;;;15.37;14.00;;;15.60;1.00;;;;;;5074687;28;20489;-76
2021/08/12 01:23:23;;;;;;;16.17;14.77;;;15.60;1.00;;;;;;5057210;28;20602;-79
2021/08/12 01:25:52;;;;;;;15.47;14.17;;;15.60;1.00;;;;;;5059011;28;20484;-77
2021/08/12 01:28:22;;;;;;;14.57;13.17;;;15.60;1.00;;;;;;5073944;28;20503;-77
2021/08/12 01:30:57;;;;;;;16.63;14.90;;;15.60;1.00;;;;;;5074727;28;20478;-77
2021/08/12 01:33:34;;;;;;;15.70;14.30;;;15.60;1.00;;;;;;5074948;28;20436;-78
2021/08/12 01:36:05;;;;;;;16.97;15.40;;;15.60;1.00;;;;;;5063664;28;20466;-77
2021/08/12 01:38:33;;;;;;;15.97;14.57;;;15.50;1.00;;;;;;5076910;28;20485;-78
2021/08/12 01:41:01;;;;;;;16.00;14.40;;;15.50;1.00;;;;;;5077377;28;20510;-77
2021/08/12 01:43:29;;;;;;;15.50;14.00;;;15.40;1.00;;;;;;5074403;28;20441;-76
2021/08/12 01:45:59;;;;;;;15.33;14.00;;;15.40;1.00;;;;;;5077661;28;20695;-77
2021/08/12 01:48:28;;;;;;;14.87;13.40;;;15.30;1.00;;;;;;5055612;28;20493;-77
2021/08/12 01:50:56;;;;;;;15.97;14.47;;;15.30;1.00;;;;;;5084948;28;20436;-76
2021/08/12 01:53:25;;;;;;;16.37;14.77;;;15.30;1.00;;;;;;5098671;28;20405;-77
2021/08/12 01:55:53;;;;;;;15.70;14.20;;;15.30;1.00;;;;;;5091254;28;20469;-77
2021/08/12 01:58:24;;;;;;;16.53;14.90;;;15.20;1.00;;;;;;5078818;28;20497;-75
2021/08/12 02:00:52;;;;;;;15.20;13.67;;;15.20;1.00;;;;;;5075522;28;20564;-77
2021/08/12 02:03:21;;;;;;;15.73;14.23;;;15.20;1.00;;;;;;5063664;28;20437;-76
2021/08/12 02:05:50;;;;;;;16.27;14.80;;;15.20;1.00;;;;;;5070909;28;20539;-77
2021/08/12 02:08:19;;;;;;;16.97;15.47;;;15.20;1.00;;;;;;5075783;28;20523;-77
2021/08/12 02:10:48;;;;;;;15.57;14.17;;;15.20;1.00;;;;;;5077180;28;20878;-76
2021/08/12 02:13:15;;;;;;;15.83;14.40;;;15.20;1.00;;;;;;5074072;28;20524;-76
2021/08/12 02:15:43;;;;;;;15.17;13.77;;;15.20;1.00;;;;;;5075126;28;20444;-77
2021/08/12 02:18:10;;;;;;;15.30;13.90;;;15.20;1.00;;;;;;5079283;28;20454;-76
2021/08/12 02:20:40;;;;;;;16.53;15.07;;;15.20;1.00;;;;;;5077286;28;20480;-75
2021/08/12 02:23:13;;;;;;;16.53;14.83;;;15.10;1.00;;;;;;5077825;28;20424;-77
2021/08/12 02:25:48;;;;;;;14.90;13.40;;;15.10;1.00;;;;;;5086055;28;20540;-78
2021/08/12 02:28:18;;;;;;;15.97;14.30;;;15.00;1.00;;;;;;5086251;28;20475;-78
2021/08/12 02:30:47;;;;;;;16.90;15.30;;;15.00;1.00;;;;;;5077777;28;21005;-76
2021/08/12 02:33:17;;;;;;;16.10;14.50;;;15.00;1.00;;;;;;5074175;28;20479;-78
2021/08/12 02:35:44;;;;;;;14.70;13.40;;;15.00;1.00;;;;;;5075661;28;20909;-77
2021/08/12 02:38:14;;;;;;;14.97;13.57;;;15.00;1.00;;;;;;5060396;28;20480;-75
2021/08/12 02:40:42;;;;;;;15.30;13.77;;;15.10;1.00;;;;;;5056801;28;20472;-76
2021/08/12 02:43:10;;;;;;;16.57;14.90;;;15.10;1.00;;;;;;5075274;28;20451;-76
2021/08/12 02:45:39;;;;;;;16.37;14.83;;;15.10;1.00;;;;;;5059342;28;20523;-76
2021/08/12 02:48:09;;;;;;;17.83;16.10;;;15.10;1.00;;;;;;5079847;28;20424;-78
2021/08/12 02:50:38;;;;;;;16.10;14.60;;;15.10;1.00;;;;;;5074143;28;20482;-77
2021/08/12 02:53:06;;;;;;;15.83;14.43;;;15.10;1.00;;;;;;5080919;28;20538;-78
2021/08/12 02:55:34;;;;;;;20.50;18.70;;;15.10;1.00;;;;;;5090906;28;21493;-75
2021/08/12 02:58:01;;;;;;;20.77;18.67;;;15.10;1.00;;;;;;5091136;28;20415;-75
2021/08/12 03:00:32;;;;;;;16.53;14.90;;;15.00;1.00;;;;;;5081005;28;20464;-78
2021/08/12 03:03:01;;;;;;;16.80;15.07;;;15.00;1.00;;;;;;5064201;28;20442;-77
2021/08/12 03:05:30;;;;;;;16.73;15.13;;;14.90;1.00;;;;;;5077865;28;20601;-77
2021/08/12 03:07:57;;;;;;;15.33;13.90;;;14.90;1.00;;;;;;5078752;28;21063;-77
2021/08/12 03:10:24;;;;;;;16.00;14.40;;;14.90;1.00;;;;;;5083040;28;20434;-77
2021/08/12 03:12:52;;;;;;;16.37;14.87;;;14.90;1.00;;;;;;5063498;28;20528;-76
2021/08/12 03:15:20;;;;;;;17.00;15.50;;;14.80;1.00;;;;;;5087000;28;20470;-77
2021/08/12 03:17:48;;;;;;;16.03;14.63;;;14.80;1.00;;;;;;5084047;28;20516;-77
2021/08/12 03:20:16;;;;;;;17.33;15.83;;;14.70;1.00;;;;;;5086841;28;20464;-77
2021/08/12 03:22:43;;;;;;;15.57;14.07;;;14.70;1.00;;;;;;5087682;28;21217;-77
2021/08/12 03:25:10;;;;;;;16.37;14.97;;;14.70;1.00;;;;;;5105516;28;20400;-77
2021/08/12 03:27:37;;;;;;;17.20;15.47;;;14.60;1.00;;;;;;5111668;28;20404;-77
2021/08/12 03:30:05;;;;;;;16.90;15.37;;;14.60;1.00;;;;;;5109645;27;20420;-77
2021/08/12 03:32:31;;;;;;;16.80;15.20;;;14.60;1.00;;;;;;5107609;28;20467;-77
2021/08/12 03:34:59;;;;;;;18.07;16.27;;;14.60;1.00;;;;;;5111362;27;20450;-77
2021/08/12 03:37:27;;;;;;;18.03;16.40;;;14.70;1.00;;;;;;5108752;27;20430;-78
2021/08/12 03:39:54;;;;;;;18.33;16.53;;;14.60;1.00;;;;;;5114626;27;20439;-78
2021/08/12 03:42:21;;;;;;;18.07;16.37;;;14.70;1.00;;;;;;5110367;27;20408;-77
2021/08/12 03:44:51;;;;;;;18.53;16.80;;;14.70;1.00;;;;;;5112934;27;20430;-75
2021/08/12 03:47:19;;;;;;;18.27;16.50;;;14.70;1.00;;;;;;5115009;27;20414;-76
2021/08/12 03:49:47;;;;;;;18.07;16.33;;;14.70;1.00;;;;;;5110688;27;20435;-76
2021/08/12 03:52:14;;;;;;;19.93;18.07;;;14.70;1.00;;;;;;5109094;27;20405;-77
2021/08/12 03:54:42;;;;;;;19.60;17.87;;;14.70;1.00;;;;;;5109692;27;20538;-75
2021/08/12 03:57:09;;;;;;;20.03;17.03;;;14.80;1.00;;;;;;5107036;28;20440;-75
2021/08/12 03:59:36;;;;;;;20.90;18.70;;;14.80;1.00;;;;;;5104541;27;20423;-76
2021/08/12 04:02:03;;;;;;;18.20;16.67;;;14.90;1.00;;;;;;5107093;28;20404;-73
2021/08/12 04:04:29;;;;;;;18.20;16.30;;;14.90;1.00;;;;;;5110151;28;20404;-73
2021/08/12 04:06:56;;;;;;;18.63;16.97;;;14.90;1.00;;;;;;5108359;27;20456;-74
2021/08/12 04:09:23;;;;;;;18.40;16.63;;;14.90;1.00;;;;;;5108377;27;20427;-75
2021/08/12 04:11:51;;;;;;;19.80;17.80;;;14.90;1.00;;;;;;5107404;27;20416;-74
2021/08/12 04:14:19;;;;;;;19.40;17.70;;;15.00;1.00;;;;;;5105369;27;20435;-73
2021/08/12 04:16:46;;;;;;;17.37;15.80;;;15.00;1.00;;;;;;5104849;27;20468;-75
2021/08/12 04:19:14;;;;;;;20.60;18.47;;;15.00;1.00;;;;;;5106287;28;20462;-74
2021/08/12 04:21:41;;;;;;;19.00;17.17;;;14.90;1.00;;;;;;5106957;28;20408;-74
2021/08/12 04:24:08;;;;;;;19.50;17.70;;;14.90;1.00;;;;;;5103256;27;20413;-74
2021/08/12 04:26:35;;;;;;;18.33;16.63;;;14.90;1.00;;;;;;5101578;27;20428;-75
2021/08/12 04:29:03;;;;;;;19.60;17.97;;;14.90;1.00;;;;;;5104933;28;20420;-75
2021/08/12 04:31:30;;;;;;;18.97;17.07;;;15.00;1.00;;;;;;5107181;27;20440;-76
2021/08/12 04:33:57;;;;;;;19.90;17.90;;;15.00;1.00;;;;;;5108611;27;20435;-75
2021/08/12 04:36:24;;;;;;;17.60;16.00;;;15.00;1.00;;;;;;5106995;27;20443;-76
2021/08/12 04:38:51;;;;;;;18.47;16.67;;;15.10;1.00;;;;;;5106441;27;20411;-76
2021/08/12 04:41:18;;;;;;;18.60;16.00;;;15.10;1.00;;;;;;5107967;27;20472;-77
2021/08/12 04:43:45;;;;;;;17.43;15.83;;;15.10;1.00;;;;;;5106099;27;20459;-77
2021/08/12 04:46:14;;;;;;;19.07;17.17;;;15.20;1.00;;;;;;5107013;27;20436;-76
2021/08/12 04:48:41;;;;;;;19.23;17.50;;;15.20;1.00;;;;;;5106944;27;20409;-77
2021/08/12 04:51:08;;;;;;;18.80;17.00;;;15.20;1.00;;;;;;5109040;27;20432;-77
2021/08/12 04:53:35;;;;;;;19.50;17.70;;;15.20;1.00;;;;;;5103083;27;20537;-76
2021/08/12 04:56:01;;;;;;;18.73;17.03;;;15.20;1.00;;;;;;5104990;27;20419;-78
2021/08/12 04:58:28;;;;;;;17.63;15.90;;;15.30;1.00;;;;;;5105437;27;20438;-77
2021/08/12 05:00:55;;;;;;;18.63;16.80;;;15.30;1.00;;;;;;5108436;27;20428;-76
2021/08/12 05:03:23;;;;;;;19.30;17.50;;;15.40;1.00;;;;;;5105925;27;20408;-76
2021/08/12 05:06:00;;;;;;;19.37;17.67;;;15.50;1.00;;;;;;5106014;27;20427;-77
2021/08/12 05:08:26;;;;;;;18.67;16.97;;;15.50;1.00;;;;;;5097159;28;20461;-77
2021/08/12 05:10:53;;;;;;;19.30;17.50;;;15.60;1.00;;;;;;5095254;28;20429;-76
2021/08/12 05:13:20;;;;;;;19.33;17.43;;;15.70;1.00;;;;;;5093365;28;20626;-77
2021/08/12 05:15:47;;;;;;;18.07;16.37;;;15.80;1.00;;;;;;5091561;28;20410;-76
2021/08/12 05:18:14;;;;;;;20.30;18.30;;;15.90;1.00;;;;;;5087227;28;20420;-76
2021/08/12 05:20:42;;;;;;;19.50;17.60;;;15.90;1.00;;;;;;5088828;28;20433;-76
2021/08/12 05:23:09;;;;;;;22.67;20.53;;;16.00;1.00;;;;;;5075523;28;20429;-76
2021/08/12 05:25:36;;;;;;;20.90;18.67;;;16.10;1.00;;;;;;5071464;28;20554;-76
2021/08/12 05:28:03;;;;;;;18.47;16.87;;;16.20;1.00;;;;;;5084157;28;20465;-77
2021/08/12 05:30:30;;;;;;;26.97;24.50;;;16.30;1.00;;;;;;5087605;28;20447;-77
2021/08/12 05:32:57;;;;;;;17.37;15.73;;;16.40;1.00;;;;;;5086378;28;20467;-78
2021/08/12 05:35:27;;;;;;;18.27;16.47;;;16.50;1.00;;;;;;5070441;28;20410;-78
2021/08/12 05:37:55;;;;;;;27.60;24.27;;;16.60;1.00;;;;;;5084254;28;22190;-78
2021/08/12 05:40:22;;;;;;;21.00;18.87;;;16.70;1.00;;;;;;5091240;28;20445;-77
2021/08/12 05:42:49;;;;;;;18.70;16.90;;;16.80;1.00;;;;;;5090958;28;20448;-77
2021/08/12 05:45:16;;;;;;;19.00;16.17;;;17.00;1.00;;;;;;5093215;28;23751;-77
2021/08/12 05:47:43;;;;;;;18.97;16.97;;;17.20;1.00;;;;;;5090134;28;20452;-79
2021/08/12 05:50:10;;;;;;;17.27;15.37;;;17.30;1.00;;;;;;5090060;28;20566;-79
2021/08/12 05:52:37;;;;;;;16.27;14.77;;;17.40;1.00;;;;;;5090005;28;20458;-79
2021/08/12 05:55:07;;;;;;;18.63;16.70;;;17.60;1.00;;;;;;5083652;28;20447;-79
2021/08/12 05:57:34;;;;;;;19.97;16.47;;;17.70;1.00;;;;;;5085112;28;20426;-79
2021/08/12 06:00:01;;;;;;;19.83;17.83;;;17.80;1.00;;;;;;5085872;28;20541;-78
2021/08/12 06:02:28;;;;;;;17.37;15.87;;;17.90;1.00;;;;;;5080257;28;20442;-78
2021/08/12 06:04:55;;;;;;;16.87;15.30;;;18.00;1.00;;;;;;5097378;28;20425;-79
2021/08/12 06:07:22;;;;;;;16.90;15.20;;;18.10;1.00;;;;;;5087117;28;21175;-80
2021/08/12 06:09:49;;;;;;;17.50;15.90;;;18.20;1.00;;;;;;5082807;28;21154;-79
2021/08/12 06:12:18;;;;;;;17.83;16.23;;;18.30;1.00;;;;;;5083398;28;20485;-77
2021/08/12 06:14:45;;;;;;;17.93;16.03;;;18.40;1.00;;;;;;5081603;28;21081;-77
2021/08/12 06:17:12;;;;;;;17.70;15.87;;;18.50;1.00;;;;;;5094698;27;20483;-78
2021/08/12 06:19:38;;;;;;;18.60;16.67;;;18.70;1.00;;;;;;5082563;28;20451;-77
2021/08/12 06:22:05;;;;;;;17.80;15.90;;;18.80;1.00;;;;;;5082570;28;20459;-79
2021/08/12 06:24:32;;;;;;;17.83;15.93;;;18.80;1.00;;;;;;5083471;28;20846;-78
2021/08/12 06:26:59;;;;;;;17.30;15.67;;;18.80;1.00;;;;;;5062945;28;20431;-79
2021/08/12 06:29:27;;;;;;;17.13;15.23;;;18.90;1.00;;;;;;5080467;28;20514;-78
2021/08/12 06:31:54;;;;;;;19.50;15.30;;;18.90;1.00;;;;;;5076083;28;20486;-80
2021/08/12 06:34:21;;;;;;;17.27;15.57;;;19.00;1.00;;;;;;5082386;28;20463;-77
2021/08/12 06:36:48;;;;;;;16.90;15.20;;;19.10;1.00;;;;;;5077960;28;20427;-77
2021/08/12 06:39:15;;;;;;;16.50;14.87;;;19.20;1.00;;;;;;5083009;28;20542;-79
2021/08/12 06:41:43;;;;;;;17.40;15.90;;;19.30;1.00;;;;;;5072991;28;20614;-79
2021/08/12 06:44:10;;;;;;;16.13;13.67;;;19.40;1.00;;;;;;5060791;28;20439;-78
2021/08/12 06:46:38;;;;;;;16.10;14.50;;;19.40;1.00;;;;;;5083771;28;20406;-78
2021/08/12 06:49:07;;;;;;;15.90;14.10;;;19.40;1.00;;;;;;5061059;28;21373;-78
2021/08/12 06:51:35;;;;;;;16.20;14.67;;;19.50;1.00;;;;;;5075476;28;20518;-79
2021/08/12 06:54:01;;;;;;;16.43;14.10;;;19.60;1.00;;;;;;5059119;28;20450;-77
2021/08/12 06:56:28;;;;;;;13.70;12.30;;;19.70;1.00;;;;;;5060089;28;21212;-78
2021/08/12 06:58:55;;;;;;;15.00;12.40;;;19.80;1.00;;;;;;5078566;28;20431;-77
2021/08/12 07:01:22;;;;;;;15.20;13.30;;;19.90;1.00;;;;;;5076498;28;20424;-79
2021/08/12 07:03:50;;;;;;;10.87;9.97;;;20.00;1.00;;;;;;5089817;28;20492;-77
2021/08/12 07:06:19;;;;;;;13.43;10.63;;;20.10;1.00;;;;;;5093930;28;20433;-78
2021/08/12 07:08:45;;;;;;;11.50;10.33;;;20.20;1.00;;;;;;5079389;28;20447;-78
2021/08/12 07:11:12;;;;;;;8.63;7.83;;;20.30;1.00;;;;;;5076393;28;20517;-79
2021/08/12 07:13:42;;;;;;;12.23;10.10;;;20.40;1.00;;;;;;5073199;28;20443;-80
2021/08/12 07:16:14;;;;;;;11.07;9.97;;;20.50;1.00;;;;;;5076923;28;20473;-80
2021/08/12 07:18:41;;;;;;;10.77;9.20;;;20.60;1.00;;;;;;5076311;28;20490;-76
2021/08/12 07:21:14;;;;;;;10.53;9.47;;;20.80;1.00;;;;;;5078618;28;20428;-81
2021/08/12 07:23:41;;;;;;;15.63;13.30;;;20.90;1.00;;;;;;5072622;28;20878;-81
2021/08/12 07:26:12;;;;;;;10.03;9.00;;;21.10;1.00;;;;;;5080376;28;20495;-76
2021/08/12 07:28:39;;;;;;;10.60;9.60;;;21.20;1.00;;;;;;5079173;28;20515;-77
2021/08/12 07:31:07;;;;;;;10.67;9.67;;;21.20;1.00;;;;;;5080970;28;20488;-77
2021/08/12 07:33:34;;;;;;;11.13;10.07;;;21.30;1.00;;;;;;5079983;28;20490;-79
2021/08/12 07:36:02;;;;;;;11.43;10.43;;;21.50;1.00;;;;;;5081188;28;20539;-77
2021/08/12 07:38:31;;;;;;;11.57;10.40;;;21.50;1.00;;;;;;5088799;28;20417;-77
2021/08/12 07:40:58;;;;;;;11.90;10.50;;;21.60;1.00;;;;;;5090772;28;20525;-78
2021/08/12 07:43:26;;;;;;;11.17;10.00;;;21.80;1.00;;;;;;5093368;28;20616;-77
2021/08/12 07:45:53;;;;;;;10.70;9.70;;;22.00;1.00;;;;;;5090937;28;20473;-78
2021/08/12 07:48:20;;;;;;;10.03;9.00;;;22.10;1.00;;;;;;5084229;28;21304;-77
2021/08/12 07:50:47;;;;;;;9.47;8.63;;;22.20;1.00;;;;;;5082879;28;20484;-78
2021/08/12 07:53:17;;;;;;;10.37;9.37;;;22.20;1.00;;;;;;5068683;28;20574;-79
2021/08/12 07:55:46;;;;;;;14.07;9.23;;;22.30;1.00;;;;;;5083039;28;20422;-82
2021/08/12 07:58:12;;;;;;;9.93;9.03;;;22.40;1.00;;;;;;5077958;28;20447;-80
2021/08/12 08:00:39;;;;;;;9.23;8.23;;;22.50;1.00;;;;;;5076894;28;20510;-80
2021/08/12 08:03:06;;;;;;;8.73;7.93;;;22.60;1.00;;;;;;5058122;28;20477;-79
2021/08/12 08:05:33;;;;;;;8.70;7.93;;;22.70;1.00;;;;;;5077286;28;20460;-78
2021/08/12 08:08:00;;;;;;;8.10;7.40;;;22.70;1.00;;;;;;5077158;28;20439;-77
2021/08/12 08:10:27;;;;;;;8.70;8.00;;;22.80;1.00;;;;;;5086339;28;20422;-76
2021/08/12 08:12:56;;;;;;;7.37;6.67;;;23.00;1.00;;;;;;5082265;28;20467;-77
2021/08/12 08:15:23;;;;;;;6.80;5.87;;;23.20;1.00;;;;;;5080193;28;20461;-78
2021/08/12 08:17:50;;;;;;;7.80;6.17;;;23.30;1.00;;;;;;5084302;28;20471;-78
2021/08/12 08:20:17;;;;;;;6.73;6.13;;;23.30;1.00;;;;;;5080846;28;20537;-76
2021/08/12 08:22:43;;;;;;;7.70;6.20;;;23.40;1.00;;;;;;5061467;28;20449;-78
2021/08/12 08:25:13;;;;;;;7.03;5.90;;;23.50;1.00;;;;;;5084093;28;20677;-79
2021/08/12 08:27:40;;;;;;;6.30;5.70;;;23.70;1.00;;;;;;5089274;28;20448;-77
2021/08/12 08:30:10;;;;;;;6.97;6.37;;;23.60;1.00;;;;;;5086660;28;20486;-79
2021/08/12 08:32:37;;;;;;;7.47;5.83;;;23.60;1.00;;;;;;5062909;28;20441;-77
2021/08/12 08:35:05;;;;;;;5.70;5.10;;;23.80;1.00;;;;;;5084730;28;20576;-78
2021/08/12 08:37:31;;;;;;;4.50;4.10;;;23.90;1.00;;;;;;5083978;28;20447;-80
2021/08/12 08:39:58;;;;;;;5.37;4.97;;;24.10;1.00;;;;;;5089141;28;20449;-78
2021/08/12 08:42:25;;;;;;;5.57;5.07;;;24.20;1.00;;;;;;5081235;28;20457;-79
2021/08/12 08:44:57;;;;;;;4.50;4.10;;;24.30;1.00;;;;;;5082853;28;20669;-79
2021/08/12 08:47:26;;;;;;;6.33;4.33;;;24.30;1.00;;;;;;5077914;28;20701;-78
2021/08/12 08:49:54;;;;;;;5.93;4.80;;;24.30;1.00;;;;;;5080199;28;21507;-79
2021/08/12 08:52:22;;;;;;;5.63;4.50;;;24.30;1.00;;;;;;5079392;28;21476;-78
2021/08/12 08:54:50;;;;;;;4.63;4.20;;;24.50;1.00;;;;;;5082634;28;20460;-77
2021/08/12 08:57:17;;;;;;;4.40;4.00;;;24.60;1.00;;;;;;5077539;28;20553;-77
2021/08/12 08:59:46;;;;;;;5.20;3.93;;;24.70;1.00;;;;;;5079989;28;20466;-81
2021/08/12 09:02:14;;;;;;;4.87;4.47;;;24.90;1.00;;;;;;5077211;28;20554;-80
2021/08/12 09:04:45;;;;;;;4.00;3.50;;;25.10;1.00;;;;;;5058103;28;20625;-79
2021/08/12 09:07:12;;;;;;;4.60;4.20;;;25.10;1.00;;;;;;5082732;28;20460;-80
2021/08/12 09:09:39;;;;;;;4.40;4.00;;;25.20;1.00;;;;;;5077564;28;20413;-79
2021/08/12 09:12:07;;;;;;;4.20;3.80;;;25.20;1.00;;;;;;5078780;28;21223;-78
2021/08/12 09:14:36;;;;;;;4.73;4.33;;;25.30;1.00;;;;;;5067247;28;20465;-77
2021/08/12 09:17:25;;;;;;;3.93;3.63;;;25.30;1.00;;;;;;5086767;28;20474;-76
2021/08/12 09:20:06;;;;;;;4.50;4.10;;;25.40;1.00;;;;;;5081946;28;20446;-79
2021/08/12 09:22:54;;;;;;;4.07;3.67;;;25.60;1.00;;;;;;5085439;28;20417;-76
2021/08/12 09:25:34;;;;;;;3.90;3.37;;;25.80;1.00;;;;;;5069392;28;21036;-78
2021/08/12 09:28:17;;;;;;;6.60;6.00;;;25.90;1.00;;;;;;5081243;28;20467;-77
2021/08/12 09:30:45;;;;;;;4.70;4.30;;;26.30;1.00;;;;;;5079606;28;20481;-78
2021/08/12 09:33:17;;;;;;;4.63;4.23;;;26.40;1.00;;;;;;5077447;28;20466;-79
2021/08/12 09:35:46;;;;;;;3.87;3.50;;;26.80;1.00;;;;;;5062412;28;20513;-78
2021/08/12 09:38:15;;;;;;;4.83;4.43;;;27.40;1.00;;;;;;5077924;28;20433;-80
2021/08/12 09:40:43;;;;;;;4.30;3.50;;;28.00;1.00;;;;;;5076978;28;20434;-78
2021/08/12 09:43:11;;;;;;;3.00;2.80;;;28.70;1.00;;;;;;5080866;28;20578;-76
2021/08/12 09:45:41;;;;;;;3.33;2.93;;;29.10;1.00;;;;;;5075945;28;20463;-78
2021/08/12 09:48:13;;;;;;;3.87;3.57;;;29.70;1.00;;;;;;5075191;28;20504;-77
2021/08/12 09:50:41;;;;;;;3.63;2.93;;;30.50;1.00;;;;;;5079257;28;20449;-80
2021/08/12 09:53:18;;;;;;;4.57;4.10;;;31.10;1.00;;;;;;5073764;28;20470;-77
2021/08/12 09:55:47;;;;;;;3.63;3.33;;;31.60;1.00;;;;;;5078406;28;20518;-76
2021/08/12 09:58:15;;;;;;;3.47;3.17;;;32.00;1.00;;;;;;5082662;28;20967;-77
2021/08/12 10:00:44;;;;;;;3.53;3.23;;;32.10;1.00;;;;;;5066099;28;20513;-80
2021/08/12 10:03:37;;;;;;;4.47;3.80;;;32.10;1.00;;;;;;5087076;28;20497;-79
2021/08/12 10:06:05;;;;;;;3.37;3.07;;;32.80;1.00;;;;;;5081096;27;20565;-78
2021/08/12 10:08:34;;;;;;;3.57;2.87;;;33.40;1.00;;;;;;5086073;28;20416;-78
2021/08/12 10:11:19;;;;;;;3.37;3.07;;;34.00;1.00;;;;;;5085764;28;20462;-79
2021/08/12 10:13:47;;;;;;;5.10;4.13;;;34.80;1.00;;;;;;5084384;28;20439;-78
2021/08/12 10:16:16;;;;;;;4.00;3.33;;;35.50;1.00;;;;;;5088302;28;20852;-80
2021/08/12 10:18:45;;;;;;;3.13;2.83;;;36.00;1.00;;;;;;5081974;28;20436;-78
2021/08/12 10:21:13;;;;;;;5.53;4.13;;;36.10;1.00;;;;;;5082221;28;20626;-78
2021/08/12 10:23:43;;;;;;;4.93;2.90;;;36.00;1.00;;;;;;5090329;28;20431;-79
2021/08/12 10:26:11;;;;;;;3.80;3.50;;;36.00;1.00;;;;;;5088673;28;20455;-79
2021/08/12 10:28:40;;;;;;;4.10;3.80;;;36.00;1.00;;;;;;5084483;28;20598;-77
2021/08/12 10:31:08;;;;;;;3.50;3.30;;;36.30;1.00;;;;;;5083831;28;20428;-77
2021/08/12 10:33:35;;;;;;;3.00;2.70;;;36.40;1.00;;;;;;5084660;28;20484;-77
2021/08/12 10:36:03;;;;;;;4.40;3.67;;;36.60;1.00;;;;;;5092750;27;20503;-78
2021/08/12 10:38:30;;;;;;;3.70;3.00;;;36.90;1.00;;;;;;5082457;28;20450;-76
2021/08/12 10:40:58;;;;;;;5.10;4.27;;;37.20;1.00;;;;;;5080426;28;20584;-79
2021/08/12 10:43:28;;;;;;;2.77;2.57;;;37.70;1.00;;;;;;5078216;28;20465;-77
2021/08/12 10:45:57;;;;;;;3.40;2.80;;;37.90;1.00;;;;;;5079407;28;20526;-77
2021/08/12 10:48:25;;;;;;;3.07;2.73;;;38.20;1.00;;;;;;5082912;28;20454;-78
2021/08/12 10:51:11;;;;;;;3.70;3.40;;;38.50;1.00;;;;;;5076199;28;21678;-78
2021/08/12 10:53:40;;;;;;;4.23;2.50;;;38.60;1.00;;;;;;5077420;28;20565;-76
2021/08/12 10:56:11;;;;;;;24.80;22.90;;;38.20;1.00;;;;;;5078054;28;20442;-79
2021/08/12 10:58:40;;;;;;;2.83;2.60;;;37.60;1.00;;;;;;5085763;28;20425;-79
2021/08/12 11:01:10;;;;;;;2.57;2.37;;;37.70;1.00;;;;;;5088714;28;20644;-80
2021/08/12 11:03:45;;;;;;;3.20;2.53;;;37.90;1.00;;;;;;5064585;28;20412;-77
2021/08/12 11:06:20;;;;;;;2.50;2.30;;;37.80;1.00;;;;;;5077517;28;20415;-77
2021/08/12 11:08:59;;;;;;;6.73;3.90;;;37.40;1.00;;;;;;5079158;28;20446;-77
2021/08/12 11:11:57;;;;;;;4.50;2.50;;;37.90;1.00;;;;;;5081551;28;20455;-78
2021/08/12 11:14:58;;;;;;;3.23;2.93;;;38.50;1.00;;;;;;5082990;28;20542;-78
2021/08/12 11:17:53;;;;;;;2.93;2.73;;;39.00;1.00;;;;;;5066176;28;20462;-79
2021/08/12 11:20:34;;;;;;;3.70;2.87;;;39.10;1.00;;;;;;5081827;28;20430;-78
2021/08/12 11:23:38;;;;;;;2.80;2.23;;;39.30;1.00;;;;;;5077929;28;20623;-78
2021/08/12 11:26:07;;;;;;;4.30;2.53;;;39.30;1.00;;;;;;5076731;28;21641;-78
2021/08/12 11:28:53;;;;;;;3.90;2.77;;;39.20;1.00;;;;;;5080414;28;20469;-80
2021/08/12 11:31:55;;;;;;;4.40;3.10;;;39.00;1.00;;;;;;5081500;28;20463;-79
2021/08/12 11:34:30;;;;;;;2.73;2.33;;;39.50;1.00;;;;;;5087546;28;20421;-78
2021/08/12 11:37:09;;;;;;;4.70;2.50;;;39.90;1.00;;;;;;5087072;27;20418;-77
2021/08/12 11:39:47;;;;;;;2.60;2.40;;;40.60;1.00;;;;;;5088061;28;20442;-78
2021/08/12 11:42:26;;;;;;;2.90;2.47;;;40.70;1.00;;;;;;5082809;28;20446;-76
2021/08/12 11:44:56;;;;;;;2.70;2.50;;;40.50;1.00;;;;;;5085826;28;20431;-79
2021/08/12 11:47:24;;;;;;;2.93;2.73;;;41.10;1.00;;;;;;5088410;28;20427;-78
2021/08/12 11:49:53;;;;;;;4.03;2.47;;;41.00;1.00;;;;;;5080615;28;20426;-77
2021/08/12 11:52:25;;;;;;;4.00;2.47;;;41.30;1.00;;;;;;5081405;28;20967;-77
2021/08/12 11:55:00;;;;;;;2.70;2.40;;;41.00;1.00;;;;;;5081590;28;20449;-77
2021/08/12 11:57:41;;;;;;;3.40;2.50;;;40.60;1.00;;;;;;5060383;28;20458;-78
2021/08/12 12:00:12;;;;;;;5.10;3.20;;;40.40;1.00;;;;;;5080617;28;22001;-78
2021/08/12 12:02:46;;;;;;;3.60;2.50;;;40.80;1.00;;;;;;5080208;28;20418;-78
2021/08/12 12:05:14;;;;;;;2.57;2.37;;;41.10;1.00;;;;;;5080308;28;20419;-78
2021/08/12 12:07:45;;;;;;;3.17;2.33;;;41.30;1.00;;;;;;5079556;28;20419;-77
2021/08/12 12:10:12;;;;;;;3.33;2.73;;;41.50;1.00;;;;;;5084550;28;20456;-78
2021/08/12 12:12:39;;;;;;;3.20;2.53;;;41.90;1.00;;;;;;5086826;28;20454;-77
2021/08/12 12:15:07;;;;;;;2.20;2.00;;;42.20;1.00;;;;;;5088785;28;20492;-77
2021/08/12 12:17:35;;;;;;;3.13;2.40;;;42.20;1.00;;;;;;5078188;28;20424;-78
2021/08/12 12:20:13;;;;;;;2.47;2.23;;;42.20;1.00;;;;;;5081987;28;20474;-80
2021/08/12 12:22:42;;;;;;;2.37;2.17;;;41.90;1.00;;;;;;5082543;28;20433;-78
2021/08/12 12:25:11;;;;;;;2.90;2.17;;;41.30;1.00;;;;;;5084982;28;20445;-80
2021/08/12 12:27:39;;;;;;;3.30;3.00;;;40.60;1.00;;;;;;5085291;28;20443;-80
2021/08/12 12:30:12;;;;;;;2.70;2.40;;;40.80;1.00;;;;;;5066709;28;20442;-78
2021/08/12 12:32:42;;;;;;;2.77;2.40;;;41.10;1.00;;;;;;5083648;28;20972;-78
2021/08/12 12:35:11;;;;;;;3.27;2.87;;;41.10;1.00;;;;;;5085198;28;20733;-81
2021/08/12 12:37:43;;;;;;;3.30;2.40;;;41.40;1.00;;;;;;5051367;28;20424;-79
2021/08/12 12:40:17;;;;;;;4.07;3.10;;;41.50;1.00;;;;;;5085114;28;20573;-80
2021/08/12 12:42:44;;;;;;;4.60;3.20;;;41.20;1.00;;;;;;5086134;28;20431;-79
2021/08/12 12:45:15;;;;;;;5.37;3.40;;;41.00;1.00;;;;;;5083077;28;20555;-78
2021/08/12 12:47:43;;;;;;;4.03;3.07;;;41.10;1.00;;;;;;5094050;28;20849;-78
2021/08/12 12:50:16;;;;;;;3.67;2.83;;;41.70;1.00;;;;;;5110381;27;20502;-78
2021/08/12 12:53:00;;;;;;;3.00;2.60;;;41.60;1.00;;;;;;5101781;28;20474;-79
2021/08/12 12:55:29;;;;;;;3.40;2.93;;;41.20;1.00;;;;;;5103083;27;20411;-79
2021/08/12 12:58:01;;;;;;;3.00;2.80;;;41.50;1.00;;;;;;5091270;28;20508;-76